sensor_id;sensor_type;location;lat;lon;timestamp;P1;durP1;ratioP1;P2;durP2;ratioP2
49123;SDS011;48506;48.202;16.274;2023-02-11T00:00:33;44.95;;;20.88;;
49123;SDS011;48506;48.202;16.274;2023-02-11T00:02:59;45.53;;;19.52;;
49123;SDS011;48506;48.202;16.274;2023-02-11T00:05:25;50.63;;;22.75;;
49123;SDS011;48506;48.202;16.274;2023-02-11T00:07:51;43.65;;;20.73;;
49123;SDS011;48506;48.202;16.274;2023-02-11T00:10:17;50.55;;;22.20;;
49123;SDS011;48506;48.202;16.274;2023-02-11T00:12:43;44.40;;;19.80;;
49123;SDS011;48506;48.202;16.274;2023-02-11T00:15:09;42.78;;;19.63;;
49123;SDS011;48506;48.202;16.274;2023-02-11T00:17:35;43.60;;;22.13;;
49123;SDS011;48506;48.202;16.274;2023-02-11T00:20:01;47.20;;;21.05;;
49123;SDS011;48506;48.202;16.274;2023-02-11T00:22:27;45.92;;;22.45;;
49123;SDS011;48506;48.202;16.274;2023-02-11T00:24:53;52.40;;;22.88;;
49123;SDS011;48506;48.202;16.274;2023-02-11T00:27:21;46.30;;;21.00;;
49123;SDS011;48506;48.202;16.274;2023-02-11T00:29:47;46.97;;;21.50;;
49123;SDS011;48506;48.202;16.274;2023-02-11T00:32:13;44.25;;;20.77;;
49123;SDS011;48506;48.202;16.274;2023-02-11T00:34:39;46.58;;;22.23;;
49123;SDS011;48506;48.202;16.274;2023-02-11T00:37:05;46.42;;;22.10;;
49123;SDS011;48506;48.202;16.274;2023-02-11T00:39:32;48.40;;;22.35;;
49123;SDS011;48506;48.202;16.274;2023-02-11T00:41:57;46.03;;;21.75;;
49123;SDS011;48506;48.202;16.274;2023-02-11T00:44:23;48.83;;;22.33;;
49123;SDS011;48506;48.202;16.274;2023-02-11T00:46:49;43.38;;;21.77;;
49123;SDS011;48506;48.202;16.274;2023-02-11T00:49:15;45.15;;;22.15;;
49123;SDS011;48506;48.202;16.274;2023-02-11T00:51:41;43.20;;;20.48;;
49123;SDS011;48506;48.202;16.274;2023-02-11T00:54:07;53.72;;;21.40;;
49123;SDS011;48506;48.202;16.274;2023-02-11T00:56:33;41.88;;;19.80;;
49123;SDS011;48506;48.202;16.274;2023-02-11T00:58:59;44.47;;;20.52;;
49123;SDS011;48506;48.202;16.274;2023-02-11T01:01:25;48.28;;;21.45;;
49123;SDS011;48506;48.202;16.274;2023-02-11T01:03:51;39.83;;;19.55;;
49123;SDS011;48506;48.202;16.274;2023-02-11T01:06:18;44.90;;;19.40;;
49123;SDS011;48506;48.202;16.274;2023-02-11T01:08:44;42.08;;;21.05;;
49123;SDS011;48506;48.202;16.274;2023-02-11T01:11:18;42.60;;;19.15;;
49123;SDS011;48506;48.202;16.274;2023-02-11T01:13:45;48.58;;;21.85;;
49123;SDS011;48506;48.202;16.274;2023-02-11T01:16:13;46.75;;;20.98;;
49123;SDS011;48506;48.202;16.274;2023-02-11T01:18:39;45.15;;;20.77;;
49123;SDS011;48506;48.202;16.274;2023-02-11T01:21:06;42.38;;;20.38;;
49123;SDS011;48506;48.202;16.274;2023-02-11T01:23:32;51.88;;;21.83;;
49123;SDS011;48506;48.202;16.274;2023-02-11T01:25:58;47.33;;;22.63;;
49123;SDS011;48506;48.202;16.274;2023-02-11T01:28:25;57.05;;;23.83;;
49123;SDS011;48506;48.202;16.274;2023-02-11T01:30:54;44.08;;;22.77;;
49123;SDS011;48506;48.202;16.274;2023-02-11T01:33:21;50.35;;;22.48;;
49123;SDS011;48506;48.202;16.274;2023-02-11T01:35:47;45.08;;;22.30;;
49123;SDS011;48506;48.202;16.274;2023-02-11T01:38:15;46.38;;;22.65;;
49123;SDS011;48506;48.202;16.274;2023-02-11T01:40:51;53.92;;;22.38;;
49123;SDS011;48506;48.202;16.274;2023-02-11T01:43:23;45.55;;;21.73;;
49123;SDS011;48506;48.202;16.274;2023-02-11T01:48:33;44.97;;;22.48;;
49123;SDS011;48506;48.202;16.274;2023-02-11T01:51:04;51.92;;;24.63;;
49123;SDS011;48506;48.202;16.274;2023-02-11T01:53:43;47.78;;;22.52;;
49123;SDS011;48506;48.202;16.274;2023-02-11T01:56:30;49.15;;;23.27;;
49123;SDS011;48506;48.202;16.274;2023-02-11T01:59:29;53.22;;;25.13;;
49123;SDS011;48506;48.202;16.274;2023-02-11T02:02:01;49.00;;;23.80;;
49123;SDS011;48506;48.202;16.274;2023-02-11T02:04:35;51.22;;;24.65;;
49123;SDS011;48506;48.202;16.274;2023-02-11T02:07:07;51.60;;;24.92;;
49123;SDS011;48506;48.202;16.274;2023-02-11T02:09:40;50.15;;;23.52;;
49123;SDS011;48506;48.202;16.274;2023-02-11T02:12:10;52.97;;;24.15;;
49123;SDS011;48506;48.202;16.274;2023-02-11T02:14:39;56.15;;;24.27;;
49123;SDS011;48506;48.202;16.274;2023-02-11T02:17:08;52.20;;;24.60;;
49123;SDS011;48506;48.202;16.274;2023-02-11T02:28:38;56.58;;;25.90;;
49123;SDS011;48506;48.202;16.274;2023-02-11T02:31:33;53.28;;;25.38;;
49123;SDS011;48506;48.202;16.274;2023-02-11T02:34:12;48.92;;;23.65;;
49123;SDS011;48506;48.202;16.274;2023-02-11T02:37:03;66.30;;;29.50;;
49123;SDS011;48506;48.202;16.274;2023-02-11T02:39:36;53.28;;;25.83;;
49123;SDS011;48506;48.202;16.274;2023-02-11T02:42:03;53.83;;;25.88;;
49123;SDS011;48506;48.202;16.274;2023-02-11T02:44:30;54.17;;;25.00;;
49123;SDS011;48506;48.202;16.274;2023-02-11T02:46:56;57.63;;;25.02;;
49123;SDS011;48506;48.202;16.274;2023-02-11T02:49:22;53.47;;;26.20;;
49123;SDS011;48506;48.202;16.274;2023-02-11T03:00:24;47.58;;;24.30;;
49123;SDS011;48506;48.202;16.274;2023-02-11T03:05:47;49.33;;;23.23;;
49123;SDS011;48506;48.202;16.274;2023-02-11T03:08:34;46.80;;;22.92;;
49123;SDS011;48506;48.202;16.274;2023-02-11T03:13:36;50.35;;;25.88;;
49123;SDS011;48506;48.202;16.274;2023-02-11T03:16:25;51.70;;;25.20;;
49123;SDS011;48506;48.202;16.274;2023-02-11T03:19:25;47.92;;;23.92;;
49123;SDS011;48506;48.202;16.274;2023-02-11T03:21:46;54.30;;;25.67;;
49123;SDS011;48506;48.202;16.274;2023-02-11T03:24:16;46.60;;;22.95;;
49123;SDS011;48506;48.202;16.274;2023-02-11T03:26:53;44.38;;;23.05;;
49123;SDS011;48506;48.202;16.274;2023-02-11T03:29:42;44.03;;;23.10;;
49123;SDS011;48506;48.202;16.274;2023-02-11T03:32:24;48.22;;;22.95;;
49123;SDS011;48506;48.202;16.274;2023-02-11T03:35:00;52.63;;;24.05;;
49123;SDS011;48506;48.202;16.274;2023-02-11T03:37:35;48.92;;;24.13;;
49123;SDS011;48506;48.202;16.274;2023-02-11T03:40:16;46.65;;;22.33;;
49123;SDS011;48506;48.202;16.274;2023-02-11T03:42:49;51.80;;;24.58;;
49123;SDS011;48506;48.202;16.274;2023-02-11T03:45:28;49.63;;;24.50;;
49123;SDS011;48506;48.202;16.274;2023-02-11T03:47:57;53.53;;;24.60;;
49123;SDS011;48506;48.202;16.274;2023-02-11T03:50:26;51.17;;;23.42;;
49123;SDS011;48506;48.202;16.274;2023-02-11T03:52:56;44.80;;;23.27;;
49123;SDS011;48506;48.202;16.274;2023-02-11T03:55:26;46.85;;;23.08;;
49123;SDS011;48506;48.202;16.274;2023-02-11T03:57:54;47.72;;;24.73;;
49123;SDS011;48506;48.202;16.274;2023-02-11T04:00:24;50.55;;;24.52;;
49123;SDS011;48506;48.202;16.274;2023-02-11T04:02:55;55.13;;;25.23;;
49123;SDS011;48506;48.202;16.274;2023-02-11T04:05:21;55.38;;;25.80;;
49123;SDS011;48506;48.202;16.274;2023-02-11T04:07:47;51.70;;;25.55;;
49123;SDS011;48506;48.202;16.274;2023-02-11T04:10:12;52.13;;;25.55;;
49123;SDS011;48506;48.202;16.274;2023-02-11T04:12:38;51.72;;;25.67;;
49123;SDS011;48506;48.202;16.274;2023-02-11T04:15:04;54.78;;;27.08;;
49123;SDS011;48506;48.202;16.274;2023-02-11T04:17:31;58.75;;;25.67;;
49123;SDS011;48506;48.202;16.274;2023-02-11T04:19:57;56.67;;;26.88;;
49123;SDS011;48506;48.202;16.274;2023-02-11T04:22:23;52.42;;;26.00;;
49123;SDS011;48506;48.202;16.274;2023-02-11T04:24:49;48.95;;;24.60;;
49123;SDS011;48506;48.202;16.274;2023-02-11T04:27:15;51.90;;;25.17;;
49123;SDS011;48506;48.202;16.274;2023-02-11T04:29:41;53.45;;;25.45;;
49123;SDS011;48506;48.202;16.274;2023-02-11T04:32:07;50.17;;;24.70;;
49123;SDS011;48506;48.202;16.274;2023-02-11T04:34:34;47.40;;;24.30;;
49123;SDS011;48506;48.202;16.274;2023-02-11T04:37:00;53.63;;;24.08;;
49123;SDS011;48506;48.202;16.274;2023-02-11T04:39:26;50.88;;;25.42;;
49123;SDS011;48506;48.202;16.274;2023-02-11T04:41:52;50.67;;;23.27;;
49123;SDS011;48506;48.202;16.274;2023-02-11T04:44:18;50.22;;;26.00;;
49123;SDS011;48506;48.202;16.274;2023-02-11T04:46:44;47.60;;;22.80;;
49123;SDS011;48506;48.202;16.274;2023-02-11T04:49:12;57.40;;;24.73;;
49123;SDS011;48506;48.202;16.274;2023-02-11T04:51:39;54.75;;;25.30;;
49123;SDS011;48506;48.202;16.274;2023-02-11T04:54:05;46.97;;;23.95;;
49123;SDS011;48506;48.202;16.274;2023-02-11T04:56:31;48.60;;;24.33;;
49123;SDS011;48506;48.202;16.274;2023-02-11T04:58:57;49.60;;;24.83;;
49123;SDS011;48506;48.202;16.274;2023-02-11T05:01:24;46.92;;;22.67;;
49123;SDS011;48506;48.202;16.274;2023-02-11T05:03:49;48.95;;;24.67;;
49123;SDS011;48506;48.202;16.274;2023-02-11T05:06:15;55.90;;;25.77;;
49123;SDS011;48506;48.202;16.274;2023-02-11T05:08:42;51.28;;;25.35;;
49123;SDS011;48506;48.202;16.274;2023-02-11T05:11:11;46.47;;;23.77;;
49123;SDS011;48506;48.202;16.274;2023-02-11T05:13:41;51.42;;;24.60;;
49123;SDS011;48506;48.202;16.274;2023-02-11T05:16:08;50.70;;;24.05;;
49123;SDS011;48506;48.202;16.274;2023-02-11T05:18:37;47.95;;;23.35;;
49123;SDS011;48506;48.202;16.274;2023-02-11T05:23:34;34.38;;;17.58;;
49123;SDS011;48506;48.202;16.274;2023-02-11T05:26:01;43.40;;;23.67;;
49123;SDS011;48506;48.202;16.274;2023-02-11T05:28:28;47.80;;;22.83;;
49123;SDS011;48506;48.202;16.274;2023-02-11T05:30:54;45.67;;;22.38;;
49123;SDS011;48506;48.202;16.274;2023-02-11T05:33:20;44.70;;;21.42;;
49123;SDS011;48506;48.202;16.274;2023-02-11T05:35:46;43.53;;;20.25;;
49123;SDS011;48506;48.202;16.274;2023-02-11T05:38:12;41.75;;;21.73;;
49123;SDS011;48506;48.202;16.274;2023-02-11T05:40:38;40.55;;;19.88;;
49123;SDS011;48506;48.202;16.274;2023-02-11T05:43:04;42.60;;;21.30;;
49123;SDS011;48506;48.202;16.274;2023-02-11T05:45:29;38.40;;;19.70;;
49123;SDS011;48506;48.202;16.274;2023-02-11T05:47:56;46.13;;;22.60;;
49123;SDS011;48506;48.202;16.274;2023-02-11T05:50:22;42.95;;;22.48;;
49123;SDS011;48506;48.202;16.274;2023-02-11T05:52:48;38.88;;;19.27;;
49123;SDS011;48506;48.202;16.274;2023-02-11T05:55:14;42.30;;;20.85;;
49123;SDS011;48506;48.202;16.274;2023-02-11T05:57:40;42.58;;;19.85;;
49123;SDS011;48506;48.202;16.274;2023-02-11T06:00:06;37.83;;;20.30;;
49123;SDS011;48506;48.202;16.274;2023-02-11T06:02:33;39.63;;;20.58;;
49123;SDS011;48506;48.202;16.274;2023-02-11T06:04:59;39.60;;;19.08;;
49123;SDS011;48506;48.202;16.274;2023-02-11T06:07:25;39.92;;;18.42;;
49123;SDS011;48506;48.202;16.274;2023-02-11T06:09:51;41.20;;;20.48;;
49123;SDS011;48506;48.202;16.274;2023-02-11T06:12:17;38.17;;;19.85;;
49123;SDS011;48506;48.202;16.274;2023-02-11T06:14:43;38.03;;;19.67;;
49123;SDS011;48506;48.202;16.274;2023-02-11T06:17:09;36.85;;;19.75;;
49123;SDS011;48506;48.202;16.274;2023-02-11T06:19:35;38.33;;;18.02;;
49123;SDS011;48506;48.202;16.274;2023-02-11T06:22:01;40.55;;;19.52;;
49123;SDS011;48506;48.202;16.274;2023-02-11T06:24:26;35.47;;;19.83;;
49123;SDS011;48506;48.202;16.274;2023-02-11T06:26:53;42.92;;;20.75;;
49123;SDS011;48506;48.202;16.274;2023-02-11T06:29:18;43.70;;;20.55;;
49123;SDS011;48506;48.202;16.274;2023-02-11T06:31:45;37.75;;;19.30;;
49123;SDS011;48506;48.202;16.274;2023-02-11T06:34:10;40.53;;;20.08;;
49123;SDS011;48506;48.202;16.274;2023-02-11T06:36:39;42.42;;;21.17;;
49123;SDS011;48506;48.202;16.274;2023-02-11T06:39:06;44.25;;;21.15;;
49123;SDS011;48506;48.202;16.274;2023-02-11T06:41:32;39.47;;;19.38;;
49123;SDS011;48506;48.202;16.274;2023-02-11T06:43:58;47.47;;;21.15;;
49123;SDS011;48506;48.202;16.274;2023-02-11T06:46:24;41.50;;;19.98;;
49123;SDS011;48506;48.202;16.274;2023-02-11T06:48:50;38.25;;;19.73;;
49123;SDS011;48506;48.202;16.274;2023-02-11T06:51:16;51.97;;;22.48;;
49123;SDS011;48506;48.202;16.274;2023-02-11T06:53:43;41.55;;;21.13;;
49123;SDS011;48506;48.202;16.274;2023-02-11T06:56:11;41.63;;;20.15;;
49123;SDS011;48506;48.202;16.274;2023-02-11T06:58:39;43.15;;;21.58;;
49123;SDS011;48506;48.202;16.274;2023-02-11T07:01:05;48.88;;;22.10;;
49123;SDS011;48506;48.202;16.274;2023-02-11T07:03:36;39.95;;;21.15;;
49123;SDS011;48506;48.202;16.274;2023-02-11T07:06:04;40.03;;;20.15;;
49123;SDS011;48506;48.202;16.274;2023-02-11T07:08:31;41.67;;;21.00;;
49123;SDS011;48506;48.202;16.274;2023-02-11T07:10:58;43.17;;;22.10;;
49123;SDS011;48506;48.202;16.274;2023-02-11T07:13:24;38.35;;;19.60;;
49123;SDS011;48506;48.202;16.274;2023-02-11T07:15:50;46.88;;;22.10;;
49123;SDS011;48506;48.202;16.274;2023-02-11T07:18:16;38.97;;;20.48;;
49123;SDS011;48506;48.202;16.274;2023-02-11T07:20:42;44.45;;;21.77;;
49123;SDS011;48506;48.202;16.274;2023-02-11T07:23:09;43.22;;;20.50;;
49123;SDS011;48506;48.202;16.274;2023-02-11T07:25:35;46.88;;;22.05;;
49123;SDS011;48506;48.202;16.274;2023-02-11T07:28:01;41.95;;;21.67;;
49123;SDS011;48506;48.202;16.274;2023-02-11T07:30:28;41.50;;;19.90;;
49123;SDS011;48506;48.202;16.274;2023-02-11T07:32:55;44.17;;;21.35;;
49123;SDS011;48506;48.202;16.274;2023-02-11T07:35:21;40.88;;;20.80;;
49123;SDS011;48506;48.202;16.274;2023-02-11T07:37:47;42.47;;;20.92;;
49123;SDS011;48506;48.202;16.274;2023-02-11T07:40:13;42.88;;;19.55;;
49123;SDS011;48506;48.202;16.274;2023-02-11T07:42:39;41.00;;;19.10;;
49123;SDS011;48506;48.202;16.274;2023-02-11T07:45:06;36.60;;;20.20;;
49123;SDS011;48506;48.202;16.274;2023-02-11T07:47:33;40.45;;;18.88;;
49123;SDS011;48506;48.202;16.274;2023-02-11T07:50:00;41.33;;;19.92;;
49123;SDS011;48506;48.202;16.274;2023-02-11T07:52:28;44.25;;;19.85;;
49123;SDS011;48506;48.202;16.274;2023-02-11T07:54:55;35.63;;;18.33;;
49123;SDS011;48506;48.202;16.274;2023-02-11T07:57:21;39.92;;;18.98;;
49123;SDS011;48506;48.202;16.274;2023-02-11T07:59:47;40.00;;;19.77;;
49123;SDS011;48506;48.202;16.274;2023-02-11T08:02:13;36.58;;;19.02;;
49123;SDS011;48506;48.202;16.274;2023-02-11T08:04:39;41.25;;;19.13;;
49123;SDS011;48506;48.202;16.274;2023-02-11T08:07:04;38.35;;;17.98;;
49123;SDS011;48506;48.202;16.274;2023-02-11T08:09:31;36.60;;;17.35;;
49123;SDS011;48506;48.202;16.274;2023-02-11T08:11:57;41.08;;;17.45;;
49123;SDS011;48506;48.202;16.274;2023-02-11T08:14:23;34.13;;;18.65;;
49123;SDS011;48506;48.202;16.274;2023-02-11T08:16:49;33.15;;;15.60;;
49123;SDS011;48506;48.202;16.274;2023-02-11T08:19:15;36.90;;;18.15;;
49123;SDS011;48506;48.202;16.274;2023-02-11T08:21:42;33.80;;;16.95;;
49123;SDS011;48506;48.202;16.274;2023-02-11T08:24:09;32.67;;;15.55;;
49123;SDS011;48506;48.202;16.274;2023-02-11T08:26:36;36.50;;;15.90;;
49123;SDS011;48506;48.202;16.274;2023-02-11T08:29:04;36.03;;;16.13;;
49123;SDS011;48506;48.202;16.274;2023-02-11T08:31:33;30.55;;;15.55;;
49123;SDS011;48506;48.202;16.274;2023-02-11T08:34:01;33.47;;;15.55;;
49123;SDS011;48506;48.202;16.274;2023-02-11T08:36:29;36.70;;;17.00;;
49123;SDS011;48506;48.202;16.274;2023-02-11T08:38:58;30.30;;;16.25;;
49123;SDS011;48506;48.202;16.274;2023-02-11T08:41:27;36.93;;;16.83;;
49123;SDS011;48506;48.202;16.274;2023-02-11T08:43:54;31.20;;;15.13;;
49123;SDS011;48506;48.202;16.274;2023-02-11T08:46:20;34.70;;;16.45;;
49123;SDS011;48506;48.202;16.274;2023-02-11T08:48:46;32.83;;;16.02;;
49123;SDS011;48506;48.202;16.274;2023-02-11T08:51:14;36.17;;;17.08;;
49123;SDS011;48506;48.202;16.274;2023-02-11T08:53:42;33.78;;;15.52;;
49123;SDS011;48506;48.202;16.274;2023-02-11T08:56:09;36.53;;;16.00;;
49123;SDS011;48506;48.202;16.274;2023-02-11T08:58:36;34.60;;;16.15;;
49123;SDS011;48506;48.202;16.274;2023-02-11T09:01:07;33.13;;;15.77;;
49123;SDS011;48506;48.202;16.274;2023-02-11T09:03:40;37.28;;;16.17;;
49123;SDS011;48506;48.202;16.274;2023-02-11T09:06:07;34.70;;;17.27;;
49123;SDS011;48506;48.202;16.274;2023-02-11T09:08:35;40.85;;;17.83;;
49123;SDS011;48506;48.202;16.274;2023-02-11T09:11:03;33.58;;;17.52;;
49123;SDS011;48506;48.202;16.274;2023-02-11T09:13:30;38.75;;;17.88;;
49123;SDS011;48506;48.202;16.274;2023-02-11T09:15:57;37.85;;;16.75;;
49123;SDS011;48506;48.202;16.274;2023-02-11T09:18:24;30.08;;;16.50;;
49123;SDS011;48506;48.202;16.274;2023-02-11T09:20:51;46.00;;;17.83;;
49123;SDS011;48506;48.202;16.274;2023-02-11T09:23:17;38.10;;;17.90;;
49123;SDS011;48506;48.202;16.274;2023-02-11T09:25:43;37.22;;;17.50;;
49123;SDS011;48506;48.202;16.274;2023-02-11T09:28:09;30.77;;;15.05;;
49123;SDS011;48506;48.202;16.274;2023-02-11T09:30:36;34.17;;;16.08;;
49123;SDS011;48506;48.202;16.274;2023-02-11T09:33:02;30.17;;;14.82;;
49123;SDS011;48506;48.202;16.274;2023-02-11T09:35:28;32.78;;;15.77;;
49123;SDS011;48506;48.202;16.274;2023-02-11T09:37:54;38.17;;;17.50;;
49123;SDS011;48506;48.202;16.274;2023-02-11T09:40:21;33.40;;;15.73;;
49123;SDS011;48506;48.202;16.274;2023-02-11T09:42:59;31.67;;;13.80;;
49123;SDS011;48506;48.202;16.274;2023-02-11T09:45:40;30.83;;;14.00;;
49123;SDS011;48506;48.202;16.274;2023-02-11T09:50:42;29.00;;;15.73;;
49123;SDS011;48506;48.202;16.274;2023-02-11T09:53:21;29.30;;;13.55;;
49123;SDS011;48506;48.202;16.274;2023-02-11T09:55:56;35.83;;;14.30;;
49123;SDS011;48506;48.202;16.274;2023-02-11T09:58:26;24.90;;;13.07;;
49123;SDS011;48506;48.202;16.274;2023-02-11T10:01:17;27.67;;;14.40;;
49123;SDS011;48506;48.202;16.274;2023-02-11T10:06:36;30.63;;;14.15;;
49123;SDS011;48506;48.202;16.274;2023-02-11T10:14:45;25.70;;;14.27;;
49123;SDS011;48506;48.202;16.274;2023-02-11T10:22:47;24.45;;;13.05;;
49123;SDS011;48506;48.202;16.274;2023-02-11T10:25:21;23.85;;;13.30;;
49123;SDS011;48506;48.202;16.274;2023-02-11T10:30:28;24.55;;;12.73;;
49123;SDS011;48506;48.202;16.274;2023-02-11T10:35:43;25.63;;;13.00;;
49123;SDS011;48506;48.202;16.274;2023-02-11T10:38:10;26.73;;;14.43;;
49123;SDS011;48506;48.202;16.274;2023-02-11T10:40:36;32.03;;;15.77;;
49123;SDS011;48506;48.202;16.274;2023-02-11T10:43:03;25.20;;;13.93;;
49123;SDS011;48506;48.202;16.274;2023-02-11T10:45:32;27.33;;;14.27;;
49123;SDS011;48506;48.202;16.274;2023-02-11T10:48:04;23.73;;;11.27;;
49123;SDS011;48506;48.202;16.274;2023-02-11T10:50:50;22.33;;;12.93;;
49123;SDS011;48506;48.202;16.274;2023-02-11T10:53:33;30.73;;;14.18;;
49123;SDS011;48506;48.202;16.274;2023-02-11T10:56:00;23.75;;;12.20;;
49123;SDS011;48506;48.202;16.274;2023-02-11T10:58:31;28.90;;;13.32;;
49123;SDS011;48506;48.202;16.274;2023-02-11T11:01:42;25.20;;;12.38;;
49123;SDS011;48506;48.202;16.274;2023-02-11T11:07:18;25.30;;;14.15;;
49123;SDS011;48506;48.202;16.274;2023-02-11T11:09:53;22.85;;;13.25;;
49123;SDS011;48506;48.202;16.274;2023-02-11T11:15:14;21.00;;;12.13;;
49123;SDS011;48506;48.202;16.274;2023-02-11T11:17:48;23.58;;;12.15;;
49123;SDS011;48506;48.202;16.274;2023-02-11T11:20:32;26.17;;;12.05;;
49123;SDS011;48506;48.202;16.274;2023-02-11T11:23:13;23.20;;;13.30;;
49123;SDS011;48506;48.202;16.274;2023-02-11T11:25:57;22.60;;;12.55;;
49123;SDS011;48506;48.202;16.274;2023-02-11T11:28:39;17.90;;;9.33;;
49123;SDS011;48506;48.202;16.274;2023-02-11T11:31:15;22.38;;;12.40;;
49123;SDS011;48506;48.202;16.274;2023-02-11T11:33:44;24.27;;;11.07;;
49123;SDS011;48506;48.202;16.274;2023-02-11T11:36:13;24.40;;;11.38;;
49123;SDS011;48506;48.202;16.274;2023-02-11T11:38:53;20.48;;;9.27;;
49123;SDS011;48506;48.202;16.274;2023-02-11T11:41:29;26.35;;;11.00;;
49123;SDS011;48506;48.202;16.274;2023-02-11T11:43:58;21.38;;;10.05;;
49123;SDS011;48506;48.202;16.274;2023-02-11T11:46:41;21.88;;;11.05;;
49123;SDS011;48506;48.202;16.274;2023-02-11T11:54:46;21.38;;;9.82;;
49123;SDS011;48506;48.202;16.274;2023-02-11T11:57:21;22.00;;;10.38;;
49123;SDS011;48506;48.202;16.274;2023-02-11T11:59:54;22.15;;;10.40;;
49123;SDS011;48506;48.202;16.274;2023-02-11T12:16:19;14.95;;;7.32;;
49123;SDS011;48506;48.202;16.274;2023-02-11T12:30:53;21.13;;;8.20;;
49123;SDS011;48506;48.202;16.274;2023-02-11T12:42:01;22.83;;;10.05;;
49123;SDS011;48506;48.202;16.274;2023-02-11T12:50:22;25.85;;;12.10;;
49123;SDS011;48506;48.202;16.274;2023-02-11T12:53:18;22.80;;;10.57;;
49123;SDS011;48506;48.202;16.274;2023-02-11T12:55:55;21.98;;;10.30;;
49123;SDS011;48506;48.202;16.274;2023-02-11T12:58:28;21.15;;;10.68;;
49123;SDS011;48506;48.202;16.274;2023-02-11T13:01:05;19.92;;;9.35;;
49123;SDS011;48506;48.202;16.274;2023-02-11T13:06:56;21.20;;;9.93;;
49123;SDS011;48506;48.202;16.274;2023-02-11T13:09:29;20.25;;;10.07;;
49123;SDS011;48506;48.202;16.274;2023-02-11T13:12:01;23.25;;;10.95;;
49123;SDS011;48506;48.202;16.274;2023-02-11T13:14:48;24.20;;;11.48;;
49123;SDS011;48506;48.202;16.274;2023-02-11T13:17:24;24.45;;;11.43;;
49123;SDS011;48506;48.202;16.274;2023-02-11T13:20:22;26.90;;;11.55;;
49123;SDS011;48506;48.202;16.274;2023-02-11T13:23:38;30.83;;;13.23;;
49123;SDS011;48506;48.202;16.274;2023-02-11T13:25:58;25.08;;;12.52;;
49123;SDS011;48506;48.202;16.274;2023-02-11T13:28:38;31.08;;;13.35;;
49123;SDS011;48506;48.202;16.274;2023-02-11T13:31:20;29.50;;;12.65;;
49123;SDS011;48506;48.202;16.274;2023-02-11T13:36:19;29.23;;;12.63;;
49123;SDS011;48506;48.202;16.274;2023-02-11T13:38:55;29.75;;;12.52;;
49123;SDS011;48506;48.202;16.274;2023-02-11T13:41:28;27.48;;;12.15;;
49123;SDS011;48506;48.202;16.274;2023-02-11T13:49:30;27.52;;;12.75;;
49123;SDS011;48506;48.202;16.274;2023-02-11T13:52:02;27.65;;;13.25;;
49123;SDS011;48506;48.202;16.274;2023-02-11T13:54:34;29.27;;;12.00;;
49123;SDS011;48506;48.202;16.274;2023-02-11T14:02:29;27.48;;;12.77;;
49123;SDS011;48506;48.202;16.274;2023-02-11T14:13:26;24.30;;;11.98;;
49123;SDS011;48506;48.202;16.274;2023-02-11T14:21:13;30.13;;;12.98;;
49123;SDS011;48506;48.202;16.274;2023-02-11T14:23:50;27.38;;;11.63;;
49123;SDS011;48506;48.202;16.274;2023-02-11T14:31:41;23.58;;;11.27;;
49123;SDS011;48506;48.202;16.274;2023-02-11T14:42:51;27.75;;;11.95;;
49123;SDS011;48506;48.202;16.274;2023-02-11T14:45:24;20.65;;;10.18;;
49123;SDS011;48506;48.202;16.274;2023-02-11T14:50:39;20.85;;;10.73;;
49123;SDS011;48506;48.202;16.274;2023-02-11T14:53:12;23.23;;;10.10;;
49123;SDS011;48506;48.202;16.274;2023-02-11T14:55:43;20.13;;;9.90;;
49123;SDS011;48506;48.202;16.274;2023-02-11T14:58:16;19.05;;;9.98;;
49123;SDS011;48506;48.202;16.274;2023-02-11T15:00:49;20.48;;;9.65;;
49123;SDS011;48506;48.202;16.274;2023-02-11T15:03:39;18.00;;;9.35;;
49123;SDS011;48506;48.202;16.274;2023-02-11T15:06:52;20.45;;;10.07;;
49123;SDS011;48506;48.202;16.274;2023-02-11T15:09:18;16.95;;;8.20;;
49123;SDS011;48506;48.202;16.274;2023-02-11T15:11:50;17.70;;;8.25;;
49123;SDS011;48506;48.202;16.274;2023-02-11T15:14:18;21.08;;;9.65;;
49123;SDS011;48506;48.202;16.274;2023-02-11T15:17:01;17.33;;;9.52;;
49123;SDS011;48506;48.202;16.274;2023-02-11T15:19:33;20.45;;;8.73;;
49123;SDS011;48506;48.202;16.274;2023-02-11T15:22:03;15.10;;;8.50;;
49123;SDS011;48506;48.202;16.274;2023-02-11T15:24:33;12.63;;;6.63;;
49123;SDS011;48506;48.202;16.274;2023-02-11T15:29:26;21.13;;;10.55;;
49123;SDS011;48506;48.202;16.274;2023-02-11T15:32:33;17.63;;;8.98;;
49123;SDS011;48506;48.202;16.274;2023-02-11T15:34:54;16.52;;;8.70;;
49123;SDS011;48506;48.202;16.274;2023-02-11T15:37:24;17.88;;;8.60;;
49123;SDS011;48506;48.202;16.274;2023-02-11T15:40:06;19.35;;;9.55;;
49123;SDS011;48506;48.202;16.274;2023-02-11T15:42:53;19.27;;;9.05;;
49123;SDS011;48506;48.202;16.274;2023-02-11T15:45:30;17.50;;;8.50;;
49123;SDS011;48506;48.202;16.274;2023-02-11T15:48:13;16.02;;;9.10;;
49123;SDS011;48506;48.202;16.274;2023-02-11T15:50:49;22.02;;;9.20;;
49123;SDS011;48506;48.202;16.274;2023-02-11T15:53:20;20.95;;;10.32;;
49123;SDS011;48506;48.202;16.274;2023-02-11T15:56:20;17.35;;;9.18;;
49123;SDS011;48506;48.202;16.274;2023-02-11T15:58:50;17.58;;;8.93;;
49123;SDS011;48506;48.202;16.274;2023-02-11T16:01:26;23.98;;;9.68;;
49123;SDS011;48506;48.202;16.274;2023-02-11T16:03:57;19.92;;;9.75;;
49123;SDS011;48506;48.202;16.274;2023-02-11T16:06:34;16.98;;;9.00;;
49123;SDS011;48506;48.202;16.274;2023-02-11T16:09:19;23.52;;;10.20;;
49123;SDS011;48506;48.202;16.274;2023-02-11T16:11:58;21.80;;;10.20;;
49123;SDS011;48506;48.202;16.274;2023-02-11T16:17:26;19.15;;;9.98;;
49123;SDS011;48506;48.202;16.274;2023-02-11T16:19:54;19.10;;;10.10;;
49123;SDS011;48506;48.202;16.274;2023-02-11T16:22:25;21.10;;;10.77;;
49123;SDS011;48506;48.202;16.274;2023-02-11T16:24:56;21.20;;;10.32;;
49123;SDS011;48506;48.202;16.274;2023-02-11T16:27:28;17.73;;;10.00;;
49123;SDS011;48506;48.202;16.274;2023-02-11T16:30:02;21.92;;;11.07;;
49123;SDS011;48506;48.202;16.274;2023-02-11T16:32:30;22.13;;;11.32;;
49123;SDS011;48506;48.202;16.274;2023-02-11T16:34:57;22.23;;;9.80;;
49123;SDS011;48506;48.202;16.274;2023-02-11T16:37:25;16.60;;;9.70;;
49123;SDS011;48506;48.202;16.274;2023-02-11T16:39:52;21.88;;;11.55;;
49123;SDS011;48506;48.202;16.274;2023-02-11T16:42:22;23.10;;;10.75;;
49123;SDS011;48506;48.202;16.274;2023-02-11T16:44:49;19.20;;;9.73;;
49123;SDS011;48506;48.202;16.274;2023-02-11T16:47:26;24.13;;;11.68;;
49123;SDS011;48506;48.202;16.274;2023-02-11T16:49:53;22.58;;;11.18;;
49123;SDS011;48506;48.202;16.274;2023-02-11T16:52:21;24.60;;;12.30;;
49123;SDS011;48506;48.202;16.274;2023-02-11T16:54:48;20.77;;;11.02;;
49123;SDS011;48506;48.202;16.274;2023-02-11T16:57:18;25.55;;;11.77;;
49123;SDS011;48506;48.202;16.274;2023-02-11T16:59:47;18.95;;;10.00;;
49123;SDS011;48506;48.202;16.274;2023-02-11T17:02:25;20.17;;;11.35;;
49123;SDS011;48506;48.202;16.274;2023-02-11T17:04:54;21.83;;;11.00;;